sensor_id;sensor_type;location;lat;lon;timestamp;P1;durP1;ratioP1;P2;durP2;ratioP2
20036;SDS011;10179;42.640;23.312;2022-12-11T00:01:49;16.58;;;8.98;;
20036;SDS011;10179;42.640;23.312;2022-12-11T00:04:15;20.42;;;8.80;;
20036;SDS011;10179;42.640;23.312;2022-12-11T00:06:40;13.55;;;7.05;;
20036;SDS011;10179;42.640;23.312;2022-12-11T00:09:06;13.15;;;5.97;;
20036;SDS011;10179;42.640;23.312;2022-12-11T00:11:32;11.68;;;6.15;;
20036;SDS011;10179;42.640;23.312;2022-12-11T00:13:57;12.25;;;6.75;;
20036;SDS011;10179;42.640;23.312;2022-12-11T00:16:23;14.65;;;7.22;;
20036;SDS011;10179;42.640;23.312;2022-12-11T00:18:48;16.55;;;6.90;;
20036;SDS011;10179;42.640;23.312;2022-12-11T00:21:13;11.52;;;6.82;;
20036;SDS011;10179;42.640;23.312;2022-12-11T00:23:39;16.08;;;7.72;;
20036;SDS011;10179;42.640;23.312;2022-12-11T00:26:06;18.50;;;8.38;;
20036;SDS011;10179;42.640;23.312;2022-12-11T00:28:33;21.85;;;9.10;;
20036;SDS011;10179;42.640;23.312;2022-12-11T00:31:02;14.55;;;7.93;;
20036;SDS011;10179;42.640;23.312;2022-12-11T00:33:31;18.33;;;9.13;;
20036;SDS011;10179;42.640;23.312;2022-12-11T00:35:57;14.57;;;7.38;;
20036;SDS011;10179;42.640;23.312;2022-12-11T00:38:22;11.82;;;6.32;;
20036;SDS011;10179;42.640;23.312;2022-12-11T00:40:48;12.18;;;6.28;;
20036;SDS011;10179;42.640;23.312;2022-12-11T00:43:14;16.08;;;5.50;;
20036;SDS011;10179;42.640;23.312;2022-12-11T00:45:40;14.88;;;5.70;;
20036;SDS011;10179;42.640;23.312;2022-12-11T00:48:08;10.68;;;4.65;;
20036;SDS011;10179;42.640;23.312;2022-12-11T00:50:35;8.07;;;4.35;;
20036;SDS011;10179;42.640;23.312;2022-12-11T00:53:02;10.52;;;4.18;;
20036;SDS011;10179;42.640;23.312;2022-12-11T00:55:28;8.75;;;4.45;;
20036;SDS011;10179;42.640;23.312;2022-12-11T00:57:55;8.40;;;4.60;;
20036;SDS011;10179;42.640;23.312;2022-12-11T01:00:21;10.10;;;4.50;;
20036;SDS011;10179;42.640;23.312;2022-12-11T01:02:47;10.23;;;4.18;;
20036;SDS011;10179;42.640;23.312;2022-12-11T01:05:13;9.45;;;4.00;;
20036;SDS011;10179;42.640;23.312;2022-12-11T01:07:39;12.48;;;4.75;;
20036;SDS011;10179;42.640;23.312;2022-12-11T01:10:04;13.18;;;5.20;;
20036;SDS011;10179;42.640;23.312;2022-12-11T01:12:48;11.15;;;4.80;;
20036;SDS011;10179;42.640;23.312;2022-12-11T01:15:14;9.80;;;4.60;;
20036;SDS011;10179;42.640;23.312;2022-12-11T01:17:40;9.23;;;5.20;;
20036;SDS011;10179;42.640;23.312;2022-12-11T01:20:05;9.88;;;4.80;;
20036;SDS011;10179;42.640;23.312;2022-12-11T01:22:31;12.73;;;5.50;;
20036;SDS011;10179;42.640;23.312;2022-12-11T01:24:57;7.95;;;3.40;;
20036;SDS011;10179;42.640;23.312;2022-12-11T01:27:23;9.73;;;3.90;;
20036;SDS011;10179;42.640;23.312;2022-12-11T01:29:48;8.57;;;3.35;;
20036;SDS011;10179;42.640;23.312;2022-12-11T01:32:14;9.73;;;2.85;;
20036;SDS011;10179;42.640;23.312;2022-12-11T01:34:40;3.70;;;1.55;;
20036;SDS011;10179;42.640;23.312;2022-12-11T01:37:05;0.80;;;0.40;;
20036;SDS011;10179;42.640;23.312;2022-12-11T01:39:31;0.75;;;0.20;;
20036;SDS011;10179;42.640;23.312;2022-12-11T01:41:57;1.35;;;0.20;;
20036;SDS011;10179;42.640;23.312;2022-12-11T01:46:50;0.40;;;0.15;;
20036;SDS011;10179;42.640;23.312;2022-12-11T01:49:16;0.98;;;0.10;;
20036;SDS011;10179;42.640;23.312;2022-12-11T01:51:56;0.10;;;0.10;;
20036;SDS011;10179;42.640;23.312;2022-12-11T01:54:27;0.10;;;0.10;;
20036;SDS011;10179;42.640;23.312;2022-12-11T01:56:54;0.20;;;0.20;;
20036;SDS011;10179;42.640;23.312;2022-12-11T01:59:26;0.33;;;0.10;;
20036;SDS011;10179;42.640;23.312;2022-12-11T02:04:42;0.10;;;0.10;;
20036;SDS011;10179;42.640;23.312;2022-12-11T02:07:09;0.75;;;0.20;;
20036;SDS011;10179;42.640;23.312;2022-12-11T02:09:35;2.00;;;0.20;;
20036;SDS011;10179;42.640;23.312;2022-12-11T02:17:50;0.52;;;0.30;;
20036;SDS011;10179;42.640;23.312;2022-12-11T02:25:33;0.77;;;0.47;;
20036;SDS011;10179;42.640;23.312;2022-12-11T02:28:18;2.50;;;1.00;;
20036;SDS011;10179;42.640;23.312;2022-12-11T02:30:47;2.45;;;0.80;;
20036;SDS011;10179;42.640;23.312;2022-12-11T02:33:17;1.17;;;0.70;;
20036;SDS011;10179;42.640;23.312;2022-12-11T02:35:47;1.70;;;0.98;;
20036;SDS011;10179;42.640;23.312;2022-12-11T02:38:17;1.55;;;0.80;;
20036;SDS011;10179;42.640;23.312;2022-12-11T02:40:47;0.70;;;0.68;;
20036;SDS011;10179;42.640;23.312;2022-12-11T02:43:16;6.72;;;1.17;;
20036;SDS011;10179;42.640;23.312;2022-12-11T02:45:43;1.55;;;1.30;;
20036;SDS011;10179;42.640;23.312;2022-12-11T02:48:10;1.48;;;1.00;;
20036;SDS011;10179;42.640;23.312;2022-12-11T02:50:41;2.42;;;0.93;;
20036;SDS011;10179;42.640;23.312;2022-12-11T02:53:12;1.30;;;0.50;;
20036;SDS011;10179;42.640;23.312;2022-12-11T02:55:42;0.25;;;0.20;;
20036;SDS011;10179;42.640;23.312;2022-12-11T02:58:17;0.20;;;0.20;;
20036;SDS011;10179;42.640;23.312;2022-12-11T03:00:45;1.00;;;0.20;;
20036;SDS011;10179;42.640;23.312;2022-12-11T03:03:11;0.30;;;0.20;;
20036;SDS011;10179;42.640;23.312;2022-12-11T03:05:38;0.75;;;0.20;;
20036;SDS011;10179;42.640;23.312;2022-12-11T03:08:04;0.22;;;0.17;;
20036;SDS011;10179;42.640;23.312;2022-12-11T03:10:30;0.47;;;0.20;;
20036;SDS011;10179;42.640;23.312;2022-12-11T03:12:56;0.47;;;0.20;;
20036;SDS011;10179;42.640;23.312;2022-12-11T03:15:27;2.80;;;0.30;;
20036;SDS011;10179;42.640;23.312;2022-12-11T03:18:14;3.97;;;0.40;;
20036;SDS011;10179;42.640;23.312;2022-12-11T03:21:02;0.80;;;0.30;;
20036;SDS011;10179;42.640;23.312;2022-12-11T03:23:47;0.65;;;0.13;;
20036;SDS011;10179;42.640;23.312;2022-12-11T03:26:18;1.85;;;0.20;;
20036;SDS011;10179;42.640;23.312;2022-12-11T03:29:02;0.82;;;0.40;;
20036;SDS011;10179;42.640;23.312;2022-12-11T03:31:38;0.50;;;0.20;;
20036;SDS011;10179;42.640;23.312;2022-12-11T03:34:12;0.55;;;0.30;;
20036;SDS011;10179;42.640;23.312;2022-12-11T03:36:40;0.47;;;0.32;;
20036;SDS011;10179;42.640;23.312;2022-12-11T03:42:12;0.52;;;0.17;;
20036;SDS011;10179;42.640;23.312;2022-12-11T03:44:41;1.65;;;0.57;;
20036;SDS011;10179;42.640;23.312;2022-12-11T03:47:09;1.60;;;0.30;;
20036;SDS011;10179;42.640;23.312;2022-12-11T03:49:38;1.45;;;0.30;;
20036;SDS011;10179;42.640;23.312;2022-12-11T03:52:06;0.95;;;0.50;;
20036;SDS011;10179;42.640;23.312;2022-12-11T03:54:35;0.70;;;0.38;;
20036;SDS011;10179;42.640;23.312;2022-12-11T03:57:03;0.88;;;0.40;;
20036;SDS011;10179;42.640;23.312;2022-12-11T03:59:31;1.42;;;0.52;;
20036;SDS011;10179;42.640;23.312;2022-12-11T04:01:57;3.97;;;0.40;;
20036;SDS011;10179;42.640;23.312;2022-12-11T04:04:22;3.38;;;0.50;;
20036;SDS011;10179;42.640;23.312;2022-12-11T04:06:47;3.30;;;0.60;;
20036;SDS011;10179;42.640;23.312;2022-12-11T04:09:13;2.03;;;0.30;;
20036;SDS011;10179;42.640;23.312;2022-12-11T04:11:38;0.85;;;0.47;;
20036;SDS011;10179;42.640;23.312;2022-12-11T04:14:08;0.43;;;0.30;;
20036;SDS011;10179;42.640;23.312;2022-12-11T04:16:53;0.82;;;0.30;;
20036;SDS011;10179;42.640;23.312;2022-12-11T04:19:20;0.93;;;0.60;;
20036;SDS011;10179;42.640;23.312;2022-12-11T04:22:04;2.70;;;0.30;;
20036;SDS011;10179;42.640;23.312;2022-12-11T04:24:48;0.20;;;0.20;;
20036;SDS011;10179;42.640;23.312;2022-12-11T04:27:14;0.45;;;0.40;;
20036;SDS011;10179;42.640;23.312;2022-12-11T04:30:00;0.85;;;0.40;;
20036;SDS011;10179;42.640;23.312;2022-12-11T04:32:26;1.45;;;0.43;;
20036;SDS011;10179;42.640;23.312;2022-12-11T04:34:52;3.17;;;0.40;;
20036;SDS011;10179;42.640;23.312;2022-12-11T04:37:17;2.15;;;0.35;;
20036;SDS011;10179;42.640;23.312;2022-12-11T04:39:42;1.00;;;0.40;;
20036;SDS011;10179;42.640;23.312;2022-12-11T04:42:08;1.10;;;0.32;;
20036;SDS011;10179;42.640;23.312;2022-12-11T04:44:33;1.75;;;0.40;;
20036;SDS011;10179;42.640;23.312;2022-12-11T04:46:59;0.75;;;0.40;;
20036;SDS011;10179;42.640;23.312;2022-12-11T04:49:24;2.15;;;0.38;;
20036;SDS011;10179;42.640;23.312;2022-12-11T04:51:49;0.73;;;0.47;;
20036;SDS011;10179;42.640;23.312;2022-12-11T04:54:15;1.33;;;0.40;;
20036;SDS011;10179;42.640;23.312;2022-12-11T04:56:40;1.65;;;0.50;;
20036;SDS011;10179;42.640;23.312;2022-12-11T04:59:05;1.38;;;0.30;;
20036;SDS011;10179;42.640;23.312;2022-12-11T05:01:31;1.98;;;0.22;;
20036;SDS011;10179;42.640;23.312;2022-12-11T05:03:57;0.52;;;0.30;;
20036;SDS011;10179;42.640;23.312;2022-12-11T05:06:23;1.25;;;0.60;;
20036;SDS011;10179;42.640;23.312;2022-12-11T05:08:49;5.43;;;0.43;;
20036;SDS011;10179;42.640;23.312;2022-12-11T05:11:14;1.45;;;0.32;;
20036;SDS011;10179;42.640;23.312;2022-12-11T05:13:40;1.27;;;0.45;;
20036;SDS011;10179;42.640;23.312;2022-12-11T05:16:07;3.75;;;0.60;;
20036;SDS011;10179;42.640;23.312;2022-12-11T05:18:34;1.95;;;0.60;;
20036;SDS011;10179;42.640;23.312;2022-12-11T05:21:00;0.93;;;0.40;;
20036;SDS011;10179;42.640;23.312;2022-12-11T05:23:29;1.35;;;0.40;;
20036;SDS011;10179;42.640;23.312;2022-12-11T05:25:55;1.20;;;0.60;;
20036;SDS011;10179;42.640;23.312;2022-12-11T05:28:27;1.17;;;0.47;;
20036;SDS011;10179;42.640;23.312;2022-12-11T05:30:54;2.40;;;0.55;;
20036;SDS011;10179;42.640;23.312;2022-12-11T05:33:21;2.20;;;0.40;;
20036;SDS011;10179;42.640;23.312;2022-12-11T05:35:46;2.00;;;0.40;;
20036;SDS011;10179;42.640;23.312;2022-12-11T05:38:12;3.20;;;0.50;;
20036;SDS011;10179;42.640;23.312;2022-12-11T05:40:38;6.05;;;0.68;;
20036;SDS011;10179;42.640;23.312;2022-12-11T05:43:03;2.70;;;0.60;;
20036;SDS011;10179;42.640;23.312;2022-12-11T05:45:28;0.47;;;0.40;;
20036;SDS011;10179;42.640;23.312;2022-12-11T05:47:54;3.17;;;0.65;;
20036;SDS011;10179;42.640;23.312;2022-12-11T05:50:19;0.82;;;0.30;;
20036;SDS011;10179;42.640;23.312;2022-12-11T05:52:45;0.60;;;0.35;;
20036;SDS011;10179;42.640;23.312;2022-12-11T05:55:10;1.85;;;0.50;;
20036;SDS011;10179;42.640;23.312;2022-12-11T05:57:35;0.50;;;0.32;;
20036;SDS011;10179;42.640;23.312;2022-12-11T06:00:01;1.55;;;0.43;;
20036;SDS011;10179;42.640;23.312;2022-12-11T06:02:26;0.52;;;0.25;;
20036;SDS011;10179;42.640;23.312;2022-12-11T06:04:52;2.13;;;0.60;;
20036;SDS011;10179;42.640;23.312;2022-12-11T06:07:17;2.38;;;0.55;;
20036;SDS011;10179;42.640;23.312;2022-12-11T06:09:42;1.05;;;0.30;;
20036;SDS011;10179;42.640;23.312;2022-12-11T06:12:08;0.85;;;0.35;;
20036;SDS011;10179;42.640;23.312;2022-12-11T06:14:33;0.30;;;0.30;;
20036;SDS011;10179;42.640;23.312;2022-12-11T06:16:58;3.83;;;1.05;;
20036;SDS011;10179;42.640;23.312;2022-12-11T06:19:24;0.70;;;0.40;;
20036;SDS011;10179;42.640;23.312;2022-12-11T06:21:49;2.47;;;0.85;;
20036;SDS011;10179;42.640;23.312;2022-12-11T06:24:14;1.23;;;0.60;;
20036;SDS011;10179;42.640;23.312;2022-12-11T06:26:40;2.97;;;0.50;;
20036;SDS011;10179;42.640;23.312;2022-12-11T06:29:05;1.90;;;0.47;;
20036;SDS011;10179;42.640;23.312;2022-12-11T06:31:31;2.63;;;0.40;;
20036;SDS011;10179;42.640;23.312;2022-12-11T06:33:56;2.42;;;0.55;;
20036;SDS011;10179;42.640;23.312;2022-12-11T06:36:22;2.75;;;0.50;;
20036;SDS011;10179;42.640;23.312;2022-12-11T06:38:48;2.08;;;0.40;;
20036;SDS011;10179;42.640;23.312;2022-12-11T06:41:14;0.88;;;0.30;;
20036;SDS011;10179;42.640;23.312;2022-12-11T06:43:40;2.80;;;0.52;;
20036;SDS011;10179;42.640;23.312;2022-12-11T06:46:07;1.45;;;0.50;;
20036;SDS011;10179;42.640;23.312;2022-12-11T06:48:35;0.95;;;0.40;;
20036;SDS011;10179;42.640;23.312;2022-12-11T06:51:04;0.75;;;0.35;;
20036;SDS011;10179;42.640;23.312;2022-12-11T06:53:38;1.13;;;0.63;;
20036;SDS011;10179;42.640;23.312;2022-12-11T06:56:04;0.82;;;0.38;;
20036;SDS011;10179;42.640;23.312;2022-12-11T06:58:32;1.73;;;0.45;;
20036;SDS011;10179;42.640;23.312;2022-12-11T07:00:59;2.33;;;0.50;;
20036;SDS011;10179;42.640;23.312;2022-12-11T07:03:24;1.80;;;0.50;;
20036;SDS011;10179;42.640;23.312;2022-12-11T07:05:50;1.95;;;0.43;;
20036;SDS011;10179;42.640;23.312;2022-12-11T07:08:15;1.15;;;0.40;;
20036;SDS011;10179;42.640;23.312;2022-12-11T07:10:40;0.85;;;0.47;;
20036;SDS011;10179;42.640;23.312;2022-12-11T07:13:06;2.10;;;0.57;;
20036;SDS011;10179;42.640;23.312;2022-12-11T07:15:31;4.57;;;0.80;;
20036;SDS011;10179;42.640;23.312;2022-12-11T07:17:57;0.63;;;0.38;;
20036;SDS011;10179;42.640;23.312;2022-12-11T07:20:22;2.58;;;0.70;;
20036;SDS011;10179;42.640;23.312;2022-12-11T07:22:47;1.73;;;0.65;;
20036;SDS011;10179;42.640;23.312;2022-12-11T07:25:13;1.80;;;0.60;;
20036;SDS011;10179;42.640;23.312;2022-12-11T07:27:38;2.58;;;0.40;;
20036;SDS011;10179;42.640;23.312;2022-12-11T07:30:05;2.63;;;0.68;;
20036;SDS011;10179;42.640;23.312;2022-12-11T07:32:31;1.13;;;0.47;;
20036;SDS011;10179;42.640;23.312;2022-12-11T07:34:56;1.40;;;0.40;;
20036;SDS011;10179;42.640;23.312;2022-12-11T07:37:22;3.75;;;0.40;;
20036;SDS011;10179;42.640;23.312;2022-12-11T07:39:47;3.30;;;0.60;;
20036;SDS011;10179;42.640;23.312;2022-12-11T07:42:13;4.40;;;0.70;;
20036;SDS011;10179;42.640;23.312;2022-12-11T07:44:38;1.02;;;0.43;;
20036;SDS011;10179;42.640;23.312;2022-12-11T07:47:03;1.92;;;0.47;;
20036;SDS011;10179;42.640;23.312;2022-12-11T07:49:29;0.73;;;0.30;;
20036;SDS011;10179;42.640;23.312;2022-12-11T07:51:55;0.93;;;0.70;;
20036;SDS011;10179;42.640;23.312;2022-12-11T07:54:20;1.55;;;0.50;;
20036;SDS011;10179;42.640;23.312;2022-12-11T07:56:46;1.85;;;0.40;;
20036;SDS011;10179;42.640;23.312;2022-12-11T07:59:12;1.55;;;0.50;;
20036;SDS011;10179;42.640;23.312;2022-12-11T08:01:38;4.38;;;0.77;;
20036;SDS011;10179;42.640;23.312;2022-12-11T08:04:05;1.30;;;0.50;;
20036;SDS011;10179;42.640;23.312;2022-12-11T08:06:33;2.13;;;0.45;;
20036;SDS011;10179;42.640;23.312;2022-12-11T08:09:00;1.48;;;0.55;;
20036;SDS011;10179;42.640;23.312;2022-12-11T08:11:27;1.73;;;0.50;;
20036;SDS011;10179;42.640;23.312;2022-12-11T08:13:53;1.63;;;0.50;;
20036;SDS011;10179;42.640;23.312;2022-12-11T08:16:19;1.05;;;0.63;;
20036;SDS011;10179;42.640;23.312;2022-12-11T08:18:45;1.55;;;0.57;;
20036;SDS011;10179;42.640;23.312;2022-12-11T08:21:12;3.55;;;0.70;;
20036;SDS011;10179;42.640;23.312;2022-12-11T08:23:40;0.88;;;0.68;;
20036;SDS011;10179;42.640;23.312;2022-12-11T08:26:06;2.17;;;0.60;;
20036;SDS011;10179;42.640;23.312;2022-12-11T08:28:33;1.70;;;0.47;;
20036;SDS011;10179;42.640;23.312;2022-12-11T08:30:59;1.20;;;0.52;;
20036;SDS011;10179;42.640;23.312;2022-12-11T08:33:25;3.92;;;0.60;;
20036;SDS011;10179;42.640;23.312;2022-12-11T08:35:50;1.80;;;1.00;;
20036;SDS011;10179;42.640;23.312;2022-12-11T08:38:15;1.42;;;0.85;;
20036;SDS011;10179;42.640;23.312;2022-12-11T08:40:41;2.88;;;0.77;;
20036;SDS011;10179;42.640;23.312;2022-12-11T08:43:06;3.33;;;0.93;;
20036;SDS011;10179;42.640;23.312;2022-12-11T08:45:31;3.10;;;0.70;;
20036;SDS011;10179;42.640;23.312;2022-12-11T08:47:57;2.22;;;0.55;;
20036;SDS011;10179;42.640;23.312;2022-12-11T08:50:23;1.92;;;0.50;;
20036;SDS011;10179;42.640;23.312;2022-12-11T08:52:49;0.60;;;0.40;;
20036;SDS011;10179;42.640;23.312;2022-12-11T08:55:15;1.17;;;0.60;;
20036;SDS011;10179;42.640;23.312;2022-12-11T08:57:40;1.20;;;0.40;;
20036;SDS011;10179;42.640;23.312;2022-12-11T09:00:07;1.98;;;0.60;;
20036;SDS011;10179;42.640;23.312;2022-12-11T09:02:36;0.70;;;0.60;;
20036;SDS011;10179;42.640;23.312;2022-12-11T09:05:02;2.67;;;1.05;;
20036;SDS011;10179;42.640;23.312;2022-12-11T09:07:31;2.63;;;1.00;;
20036;SDS011;10179;42.640;23.312;2022-12-11T09:10:01;3.45;;;0.98;;
20036;SDS011;10179;42.640;23.312;2022-12-11T09:12:27;0.70;;;0.60;;
20036;SDS011;10179;42.640;23.312;2022-12-11T09:14:53;3.10;;;1.00;;
20036;SDS011;10179;42.640;23.312;2022-12-11T09:17:18;1.67;;;0.75;;
20036;SDS011;10179;42.640;23.312;2022-12-11T09:19:44;1.23;;;0.90;;
20036;SDS011;10179;42.640;23.312;2022-12-11T09:22:09;0.63;;;0.60;;
20036;SDS011;10179;42.640;23.312;2022-12-11T09:24:35;1.30;;;0.50;;
20036;SDS011;10179;42.640;23.312;2022-12-11T09:27:02;3.47;;;0.70;;
20036;SDS011;10179;42.640;23.312;2022-12-11T09:29:28;1.83;;;0.80;;
20036;SDS011;10179;42.640;23.312;2022-12-11T09:31:53;1.90;;;0.70;;
20036;SDS011;10179;42.640;23.312;2022-12-11T09:34:19;1.40;;;0.80;;
20036;SDS011;10179;42.640;23.312;2022-12-11T09:36:44;0.77;;;0.70;;
20036;SDS011;10179;42.640;23.312;2022-12-11T09:39:11;1.10;;;0.63;;
20036;SDS011;10179;42.640;23.312;2022-12-11T09:41:38;0.80;;;0.75;;
20036;SDS011;10179;42.640;23.312;2022-12-11T09:44:31;1.90;;;0.80;;
20036;SDS011;10179;42.640;23.312;2022-12-11T09:47:03;2.97;;;0.98;;
20036;SDS011;10179;42.640;23.312;2022-12-11T09:49:43;3.60;;;0.77;;
20036;SDS011;10179;42.640;23.312;2022-12-11T09:54:44;0.88;;;0.60;;
20036;SDS011;10179;42.640;23.312;2022-12-11T10:00:25;1.25;;;0.80;;
20036;SDS011;10179;42.640;23.312;2022-12-11T10:05:14;5.15;;;0.85;;
20036;SDS011;10179;42.640;23.312;2022-12-11T10:15:56;0.80;;;0.40;;
20036;SDS011;10179;42.640;23.312;2022-12-11T10:18:28;1.63;;;0.80;;
20036;SDS011;10179;42.640;23.312;2022-12-11T10:20:55;0.73;;;0.50;;
20036;SDS011;10179;42.640;23.312;2022-12-11T10:23:23;1.13;;;0.68;;
20036;SDS011;10179;42.640;23.312;2022-12-11T10:26:20;0.80;;;0.70;;
20036;SDS011;10179;42.640;23.312;2022-12-11T10:28:46;1.25;;;0.55;;
20036;SDS011;10179;42.640;23.312;2022-12-11T10:31:16;1.95;;;0.80;;
20036;SDS011;10179;42.640;23.312;2022-12-11T10:36:33;1.50;;;1.17;;
20036;SDS011;10179;42.640;23.312;2022-12-11T10:39:01;2.72;;;1.40;;
20036;SDS011;10179;42.640;23.312;2022-12-11T10:41:38;3.45;;;1.60;;
20036;SDS011;10179;42.640;23.312;2022-12-11T10:46:41;2.15;;;1.15;;
20036;SDS011;10179;42.640;23.312;2022-12-11T10:49:17;2.60;;;0.70;;
20036;SDS011;10179;42.640;23.312;2022-12-11T10:51:45;1.77;;;0.80;;
20036;SDS011;10179;42.640;23.312;2022-12-11T10:54:53;3.78;;;0.95;;
20036;SDS011;10179;42.640;23.312;2022-12-11T10:57:02;3.67;;;1.00;;
20036;SDS011;10179;42.640;23.312;2022-12-11T11:00:03;1.80;;;1.00;;
20036;SDS011;10179;42.640;23.312;2022-12-11T11:02:23;2.13;;;1.30;;
20036;SDS011;10179;42.640;23.312;2022-12-11T11:04:58;2.47;;;1.08;;
20036;SDS011;10179;42.640;23.312;2022-12-11T11:07:29;0.98;;;0.70;;
20036;SDS011;10179;42.640;23.312;2022-12-11T11:12:45;0.82;;;0.60;;
20036;SDS011;10179;42.640;23.312;2022-12-11T11:15:19;1.25;;;0.73;;
20036;SDS011;10179;42.640;23.312;2022-12-11T11:17:50;2.35;;;1.02;;
20036;SDS011;10179;42.640;23.312;2022-12-11T11:20:19;1.10;;;0.80;;
20036;SDS011;10179;42.640;23.312;2022-12-11T11:22:53;4.63;;;0.88;;
20036;SDS011;10179;42.640;23.312;2022-12-11T11:25:27;1.38;;;0.70;;
20036;SDS011;10179;42.640;23.312;2022-12-11T11:28:01;2.97;;;0.80;;
20036;SDS011;10179;42.640;23.312;2022-12-11T11:30:36;4.00;;;1.23;;
20036;SDS011;10179;42.640;23.312;2022-12-11T11:35:38;4.28;;;0.88;;
20036;SDS011;10179;42.640;23.312;2022-12-11T11:40:48;0.50;;;0.50;;
20036;SDS011;10179;42.640;23.312;2022-12-11T11:43:44;1.63;;;1.13;;
20036;SDS011;10179;42.640;23.312;2022-12-11T11:46:15;4.35;;;1.70;;
20036;SDS011;10179;42.640;23.312;2022-12-11T11:48:49;2.83;;;1.45;;
20036;SDS011;10179;42.640;23.312;2022-12-11T11:51:27;1.48;;;0.90;;
20036;SDS011;10179;42.640;23.312;2022-12-11T11:53:59;2.13;;;1.30;;
20036;SDS011;10179;42.640;23.312;2022-12-11T11:56:34;3.33;;;1.02;;
20036;SDS011;10179;42.640;23.312;2022-12-11T12:01:30;2.03;;;0.70;;
20036;SDS011;10179;42.640;23.312;2022-12-11T12:03:55;1.50;;;0.57;;
20036;SDS011;10179;42.640;23.312;2022-12-11T12:11:30;3.63;;;0.90;;
20036;SDS011;10179;42.640;23.312;2022-12-11T12:21:48;7.13;;;2.50;;
20036;SDS011;10179;42.640;23.312;2022-12-11T12:26:46;5.97;;;2.90;;
20036;SDS011;10179;42.640;23.312;2022-12-11T12:35:00;4.22;;;1.95;;
20036;SDS011;10179;42.640;23.312;2022-12-11T12:37:33;5.85;;;2.33;;
20036;SDS011;10179;42.640;23.312;2022-12-11T12:40:17;6.30;;;1.70;;
20036;SDS011;10179;42.640;23.312;2022-12-11T12:46:10;9.98;;;4.43;;
20036;SDS011;10179;42.640;23.312;2022-12-11T12:48:39;13.30;;;5.85;;
20036;SDS011;10179;42.640;23.312;2022-12-11T12:51:04;10.82;;;5.20;;
20036;SDS011;10179;42.640;23.312;2022-12-11T12:53:32;8.82;;;4.60;;
20036;SDS011;10179;42.640;23.312;2022-12-11T12:56:01;10.18;;;5.22;;
20036;SDS011;10179;42.640;23.312;2022-12-11T12:58:38;6.63;;;3.85;;
20036;SDS011;10179;42.640;23.312;2022-12-11T13:03:56;6.28;;;2.60;;
20036;SDS011;10179;42.640;23.312;2022-12-11T13:09:17;4.13;;;2.17;;
20036;SDS011;10179;42.640;23.312;2022-12-11T13:11:43;2.67;;;1.70;;
20036;SDS011;10179;42.640;23.312;2022-12-11T13:16:43;1.95;;;1.52;;
20036;SDS011;10179;42.640;23.312;2022-12-11T13:19:42;2.40;;;1.50;;
20036;SDS011;10179;42.640;23.312;2022-12-11T13:24:45;4.18;;;1.65;;
20036;SDS011;10179;42.640;23.312;2022-12-11T13:27:36;6.10;;;1.70;;
20036;SDS011;10179;42.640;23.312;2022-12-11T13:33:13;2.63;;;1.45;;
20036;SDS011;10179;42.640;23.312;2022-12-11T13:35:41;2.10;;;1.65;;
20036;SDS011;10179;42.640;23.312;2022-12-11T13:38:14;2.40;;;1.40;;
20036;SDS011;10179;42.640;23.312;2022-12-11T13:40:43;4.18;;;1.55;;
20036;SDS011;10179;42.640;23.312;2022-12-11T13:43:23;4.85;;;2.70;;
20036;SDS011;10179;42.640;23.312;2022-12-11T13:45:52;6.18;;;1.55;;
20036;SDS011;10179;42.640;23.312;2022-12-11T13:50:55;2.72;;;1.35;;
20036;SDS011;10179;42.640;23.312;2022-12-11T13:53:22;4.00;;;1.60;;
20036;SDS011;10179;42.640;23.312;2022-12-11T13:55:58;1.30;;;1.17;;
20036;SDS011;10179;42.640;23.312;2022-12-11T14:03:32;3.22;;;1.52;;
20036;SDS011;10179;42.640;23.312;2022-12-11T14:05:59;2.95;;;2.00;;
20036;SDS011;10179;42.640;23.312;2022-12-11T14:08:32;4.65;;;1.73;;
20036;SDS011;10179;42.640;23.312;2022-12-11T14:11:00;2.25;;;1.70;;
20036;SDS011;10179;42.640;23.312;2022-12-11T14:13:32;1.95;;;1.02;;
20036;SDS011;10179;42.640;23.312;2022-12-11T14:16:00;1.70;;;0.80;;
20036;SDS011;10179;42.640;23.312;2022-12-11T14:18:27;1.23;;;0.80;;
20036;SDS011;10179;42.640;23.312;2022-12-11T14:21:03;4.57;;;0.70;;
20036;SDS011;10179;42.640;23.312;2022-12-11T14:23:30;1.48;;;0.77;;
20036;SDS011;10179;42.640;23.312;2022-12-11T14:26:14;1.30;;;0.82;;
20036;SDS011;10179;42.640;23.312;2022-12-11T14:28:42;1.95;;;1.20;;
20036;SDS011;10179;42.640;23.312;2022-12-11T14:31:07;2.05;;;1.25;;
20036;SDS011;10179;42.640;23.312;2022-12-11T14:33:42;0.60;;;0.60;;
20036;SDS011;10179;42.640;23.312;2022-12-11T14:36:12;0.57;;;0.57;;
20036;SDS011;10179;42.640;23.312;2022-12-11T14:38:43;1.85;;;0.80;;
20036;SDS011;10179;42.640;23.312;2022-12-11T14:41:21;1.45;;;1.10;;
20036;SDS011;10179;42.640;23.312;2022-12-11T14:43:52;1.10;;;0.88;;
20036;SDS011;10179;42.640;23.312;2022-12-11T14:49:01;1.95;;;0.75;;
20036;SDS011;10179;42.640;23.312;2022-12-11T14:51:32;1.55;;;1.10;;
20036;SDS011;10179;42.640;23.312;2022-12-11T14:54:00;1.65;;;1.00;;
20036;SDS011;10179;42.640;23.312;2022-12-11T14:56:27;1.65;;;0.95;;
20036;SDS011;10179;42.640;23.312;2022-12-11T14:58:56;1.13;;;0.85;;
20036;SDS011;10179;42.640;23.312;2022-12-11T15:01:26;0.70;;;0.70;;
20036;SDS011;10179;42.640;23.312;2022-12-11T15:04:06;1.02;;;0.88;;
20036;SDS011;10179;42.640;23.312;2022-12-11T15:06:49;0.50;;;0.50;;
20036;SDS011;10179;42.640;23.312;2022-12-11T15:09:18;0.40;;;0.40;;
20036;SDS011;10179;42.640;23.312;2022-12-11T15:11:54;2.75;;;0.70;;
20036;SDS011;10179;42.640;23.312;2022-12-11T15:14:21;1.60;;;1.05;;
20036;SDS011;10179;42.640;23.312;2022-12-11T15:16:48;4.07;;;0.88;;
20036;SDS011;10179;42.640;23.312;2022-12-11T15:19:19;1.95;;;1.20;;
20036;SDS011;10179;42.640;23.312;2022-12-11T15:21:49;0.90;;;0.80;;
20036;SDS011;10179;42.640;23.312;2022-12-11T15:24:22;1.30;;;0.75;;
20036;SDS011;10179;42.640;23.312;2022-12-11T15:26:52;2.50;;;1.73;;
20036;SDS011;10179;42.640;23.312;2022-12-11T15:32:01;1.17;;;1.00;;
20036;SDS011;10179;42.640;23.312;2022-12-11T15:34:33;1.90;;;1.23;;
20036;SDS011;10179;42.640;23.312;2022-12-11T15:37:00;3.72;;;1.90;;
20036;SDS011;10179;42.640;23.312;2022-12-11T15:39:25;2.10;;;1.20;;
20036;SDS011;10179;42.640;23.312;2022-12-11T15:41:51;2.35;;;1.10;;
20036;SDS011;10179;42.640;23.312;2022-12-11T15:44:20;3.78;;;1.45;;
20036;SDS011;10179;42.640;23.312;2022-12-11T15:46:47;6.32;;;2.25;;
20036;SDS011;10179;42.640;23.312;2022-12-11T15:49:13;4.47;;;2.53;;
20036;SDS011;10179;42.640;23.312;2022-12-11T15:51:39;5.10;;;2.78;;
20036;SDS011;10179;42.640;23.312;2022-12-11T15:54:05;5.85;;;2.70;;
20036;SDS011;10179;42.640;23.312;2022-12-11T15:56:30;5.88;;;3.35;;
20036;SDS011;10179;42.640;23.312;2022-12-11T15:58:57;5.43;;;2.85;;
20036;SDS011;10179;42.640;23.312;2022-12-11T16:01:28;3.10;;;2.15;;
20036;SDS011;10179;42.640;23.312;2022-12-11T16:03:53;2.55;;;1.80;;
20036;SDS011;10179;42.640;23.312;2022-12-11T16:06:19;3.33;;;1.98;;
20036;SDS011;10179;42.640;23.312;2022-12-11T16:08:44;3.05;;;2.00;;
20036;SDS011;10179;42.640;23.312;2022-12-11T16:11:11;3.10;;;2.20;;
20036;SDS011;10179;42.640;23.312;2022-12-11T16:13:38;4.03;;;2.28;;
20036;SDS011;10179;42.640;23.312;2022-12-11T16:16:04;2.95;;;1.77;;
20036;SDS011;10179;42.640;23.312;2022-12-11T16:18:29;4.47;;;2.30;;
20036;SDS011;10179;42.640;23.312;2022-12-11T16:20:55;2.83;;;2.03;;
20036;SDS011;10179;42.640;23.312;2022-12-11T16:23:21;3.05;;;2.20;;
20036;SDS011;10179;42.640;23.312;2022-12-11T16:25:48;4.75;;;2.33;;